Time;durP1;ratioP1;P1;durP2;ratioP2;P2;SDS_P1;SDS_P2;PMS_P1;PMS_P2;Temp;Humidity;BMP_temperature;BMP_pressure;BME280_temperature;BME280_humidity;BME280_pressure;Samples;Min_cycle;Max_cycle;Signal;HPM_P1;HPM_P2
2023/10/11 00:01:37;;;;;;;;;;;;;;;21.57;50.89;96128.25;10437040;28;1918;-55
2023/10/11 00:06:40;;;;;;;;;;;;;;;21.57;50.78;96132.72;10436911;28;2102;-56
2023/10/11 00:11:40;;;;;;;;;;;;;;;21.58;50.75;96139.56;10438412;28;1886;-56
2023/10/11 00:16:42;;;;;;;;;;;;;;;21.58;50.75;96127.16;10435643;28;1909;-55
2023/10/11 00:21:42;;;;;;;;;;;;;;;21.57;50.83;96132.72;10433936;28;2609;-55
2023/10/11 00:26:49;;;;;;;;;;;;;;;21.56;50.64;96131.91;10436328;28;2050;-56
2023/10/11 00:31:52;;;;;;;;;;;;;;;21.56;50.69;96120.56;10436937;28;1830;-56
2023/10/11 00:36:52;;;;;;;;;;;;;;;21.57;50.51;96122.16;10436201;28;1862;-55
2023/10/11 00:41:53;;;;;;;;;;;;;;;21.57;50.72;96116.88;10432748;28;4657;-55
2023/10/11 00:46:58;;;;;;;;;;;;;;;21.56;50.65;96105.53;10431641;28;1904;-55
2023/10/11 00:51:58;;;;;;;;;;;;;;;21.57;50.33;96106.34;10434769;28;2122;-56
2023/10/11 00:56:58;;;;;;;;;;;;;;;21.56;50.57;96104.75;10426433;28;1942;-55
2023/10/11 01:01:59;;;;;;;;;;;;;;;21.56;50.50;96095.00;10415662;28;1963;-55
2023/10/11 01:06:59;;;;;;;;;;;;;;;21.56;50.56;96096.84;10432391;28;1999;-56
2023/10/11 01:12:00;;;;;;;;;;;;;;;21.56;50.35;96102.09;10441423;28;2051;-57
2023/10/11 01:17:00;;;;;;;;;;;;;;;21.56;50.32;96094.19;10445119;28;1940;-56
2023/10/11 01:22:00;;;;;;;;;;;;;;;21.56;50.56;96086.28;10442258;28;2424;-54
2023/10/11 01:27:03;;;;;;;;;;;;;;;21.56;50.60;96083.63;10442769;28;1967;-56
2023/10/11 01:32:03;;;;;;;;;;;;;;;21.54;50.55;96086.56;10444423;28;1975;-55
2023/10/11 01:37:06;;;;;;;;;;;;;;;21.56;50.46;96086.28;10441040;28;1921;-56
2023/10/11 01:42:06;;;;;;;;;;;;;;;21.56;50.70;96083.63;10442801;28;4692;-55
2023/10/11 01:47:06;;;;;;;;;;;;;;;21.55;50.64;96082.88;10440334;28;1903;-55
2023/10/11 01:52:12;;;;;;;;;;;;;;;21.56;50.68;96084.44;10441957;28;1960;-55
2023/10/11 01:57:12;;;;;;;;;;;;;;;21.55;50.69;96082.88;10440055;28;1928;-55
2023/10/11 02:02:13;;;;;;;;;;;;;;;21.54;50.34;96076.00;10437648;28;2008;-56
2023/10/11 02:07:14;;;;;;;;;;;;;;;21.53;50.56;96069.16;10443076;28;2399;-54
2023/10/11 02:12:17;;;;;;;;;;;;;;;21.54;50.65;96064.66;10439190;28;2013;-54
2023/10/11 02:17:23;;;;;;;;;;;;;;;21.53;50.44;96069.16;10438726;28;1983;-55
2023/10/11 02:22:23;;;;;;;;;;;;;;;21.54;50.49;96067.31;10439162;28;1947;-55
2023/10/11 02:27:24;;;;;;;;;;;;;;;21.54;50.28;96072.56;10440094;28;2006;-54
2023/10/11 02:32:31;;;;;;;;;;;;;;;21.54;50.31;96075.22;10440592;28;1896;-56
2023/10/11 02:37:35;;;;;;;;;;;;;;;21.53;50.20;96063.91;10440253;28;1884;-55
2023/10/11 02:42:36;;;;;;;;;;;;;;;21.52;50.34;96070.22;10435790;28;1963;-56
2023/10/11 02:47:36;;;;;;;;;;;;;;;21.52;50.42;96067.56;10437950;28;1935;-55
2023/10/11 02:52:37;;;;;;;;;;;;;;;21.53;50.41;96063.09;10440281;28;2371;-53
2023/10/11 02:57:40;;;;;;;;;;;;;;;21.53;50.13;96063.09;10439369;28;1963;-56
2023/10/11 03:02:42;;;;;;;;;;;;;;;21.52;50.50;96058.88;10439794;28;1942;-54
2023/10/11 03:07:42;;;;;;;;;;;;;;;21.53;50.33;96057.81;10442067;28;1884;-54
2023/10/11 03:12:50;;;;;;;;;;;;;;;21.52;50.28;96062.31;10437295;28;1919;-55
2023/10/11 03:17:52;;;;;;;;;;;;;;;21.52;50.33;96056.22;10439866;28;1923;-55
2023/10/11 03:22:53;;;;;;;;;;;;;;;21.51;50.01;96057.31;10443281;28;1965;-52
2023/10/11 03:27:53;;;;;;;;;;;;;;;21.50;50.23;96058.34;10441463;28;1939;-56
2023/10/11 03:32:56;;;;;;;;;;;;;;;21.51;50.31;96065.22;10421328;28;1912;-55
2023/10/11 03:37:59;;;;;;;;;;;;;;;21.51;50.29;96060.75;10432941;28;2521;-54
2023/10/11 03:43:16;;;;;;;;;;;;;;;21.50;50.08;96058.34;10440632;28;4589;-54
2023/10/11 03:48:17;;;;;;;;;;;;;;;21.51;50.02;96059.94;10436429;28;2234;-56
2023/10/11 03:53:18;;;;;;;;;;;;;;;21.49;49.87;96062.06;10433277;28;2056;-56
2023/10/11 03:58:33;;;;;;;;;;;;;;;21.50;50.09;96059.16;10433176;28;1920;-55
2023/10/11 04:03:34;;;;;;;;;;;;;;;21.50;49.79;96047.81;10438449;28;2055;-56
2023/10/11 04:08:39;;;;;;;;;;;;;;;21.49;49.76;96047.03;10437842;28;1963;-55
2023/10/11 04:13:44;;;;;;;;;;;;;;;21.49;50.17;96043.59;10438970;28;1979;-56
2023/10/11 04:18:45;;;;;;;;;;;;;;;21.47;50.24;96043.09;10435681;28;1969;-55
2023/10/11 04:23:48;;;;;;;;;;;;;;;21.49;50.00;96046.25;10436226;28;2582;-55
2023/10/11 04:28:51;;;;;;;;;;;;;;;21.48;50.15;96040.16;10437017;28;1888;-56
2023/10/11 04:33:54;;;;;;;;;;;;;;;21.47;50.02;96046.53;10435450;28;1963;-56
2023/10/11 04:39:03;;;;;;;;;;;;;;;21.47;49.97;96056.28;10436004;28;1977;-57
2023/10/11 04:44:13;;;;;;;;;;;;;;;21.46;50.12;96052.03;10437385;28;4630;-57
2023/10/11 04:49:21;;;;;;;;;;;;;;;21.47;49.88;96046.53;10444607;28;2262;-54
2023/10/11 04:54:22;;;;;;;;;;;;;;;21.47;49.94;96051.00;10442042;28;1935;-55
2023/10/11 05:04:33;;;;;;;;;;;;;;;21.46;49.91;96054.69;10442424;28;2172;-54
2023/10/11 05:09:40;;;;;;;;;;;;;;;21.45;49.98;96053.88;10444934;28;2477;-56
2023/10/11 05:14:54;;;;;;;;;;;;;;;21.46;49.92;96052.03;10444484;28;1941;-56
2023/10/11 05:51:26;;;;;;;;;;;;;;;21.48;50.40;96084.22;10439822;28;2157;-56
2023/10/11 05:56:33;;;;;;;;;;;;;;;21.49;50.33;96088.44;10442311;28;2454;-57
2023/10/11 06:01:34;;;;;;;;;;;;;;;21.49;50.24;96083.16;10441220;28;2243;-55
2023/10/11 06:06:42;;;;;;;;;;;;;;;21.49;50.30;96091.06;10436259;28;1963;-57
2023/10/11 06:11:47;;;;;;;;;;;;;;;21.49;50.37;96088.44;10436421;28;1882;-54
2023/10/11 06:16:57;;;;;;;;;;;;;;;21.49;50.32;96089.22;10441691;28;2108;-55
2023/10/11 06:22:09;;;;;;;;;;;;;;;21.49;50.30;96088.44;10437044;28;1985;-56
2023/10/11 06:32:12;;;;;;;;;;;;;;;21.50;50.17;96100.56;10435450;28;2032;-54
2023/10/11 06:37:17;;;;;;;;;;;;;;;21.48;49.79;96106.09;10437695;28;1882;-55
2023/10/11 06:47:21;;;;;;;;;;;;;;;21.48;49.82;96103.47;10440367;28;1904;-55
2023/10/11 06:52:25;;;;;;;;;;;;;;;21.47;50.11;96107.19;10438419;28;1904;-55
2023/10/11 06:57:25;;;;;;;;;;;;;;;21.47;49.90;96112.47;10436351;28;2108;-53
2023/10/11 07:02:32;;;;;;;;;;;;;;;21.47;49.92;96114.28;10433975;28;2081;-54
2023/10/11 07:07:32;;;;;;;;;;;;;;;21.47;49.95;96123.00;10441023;28;1819;-54
2023/10/11 07:12:41;;;;;;;;;;;;;;;21.46;50.07;96108.22;10440103;28;1893;-56
2023/10/11 07:17:42;;;;;;;;;;;;;;;21.47;49.95;96119.56;10443633;28;1866;-57
2023/10/11 07:22:42;;;;;;;;;;;;;;;21.47;50.16;96117.72;10440821;28;1906;-58
2023/10/11 07:27:42;;;;;;;;;;;;;;;21.47;49.68;96109.03;10443325;28;2427;-58
2023/10/11 07:32:43;;;;;;;;;;;;;;;21.47;50.04;96123.00;10435120;28;1970;-58
2023/10/11 07:37:43;;;;;;;;;;;;;;;21.47;50.03;96119.56;10432499;28;1924;-58
2023/10/11 07:42:44;;;;;;;;;;;;;;;21.49;50.15;96118.25;10439002;28;4601;-58
2023/10/11 07:47:48;;;;;;;;;;;;;;;21.49;49.71;96118.25;10437318;28;1835;-59
2023/10/11 07:52:48;;;;;;;;;;;;;;;21.50;50.36;96113.75;10439011;28;1527;-58
2023/10/11 07:57:48;;;;;;;;;;;;;;;21.50;50.38;96114.53;10434639;28;1962;-58
2023/10/11 08:03:04;;;;;;;;;;;;;;;21.51;50.45;96113.50;10438600;28;1973;-58
2023/10/11 08:08:05;;;;;;;;;;;;;;;21.53;50.33;96107.94;10437683;28;1793;-59
2023/10/11 08:13:14;;;;;;;;;;;;;;;21.54;50.44;96112.94;10434818;28;2505;-59
2023/10/11 08:18:16;;;;;;;;;;;;;;;21.55;50.52;96113.72;10439112;28;1520;-58
2023/10/11 08:23:42;;;;;;;;;;;;;;;21.57;50.38;96106.34;10444096;28;1973;-57
2023/10/11 08:28:46;;;;;;;;;;;;;;;21.57;50.31;96107.13;10444914;28;1785;-59
2023/10/11 08:33:46;;;;;;;;;;;;;;;21.59;50.54;96104.22;10447707;28;1574;-57
2023/10/11 08:38:47;;;;;;;;;;;;;;;21.61;50.51;96102.09;10442281;28;1977;-56
2023/10/11 08:43:48;;;;;;;;;;;;;;;21.61;50.58;96091.53;10449023;28;4598;-57
2023/10/11 08:48:50;;;;;;;;;;;;;;;21.61;50.26;96084.44;10446987;28;1479;-58
2023/10/11 08:53:54;;;;;;;;;;;;;;;21.63;50.43;96086.78;10442001;28;1868;-58
2023/10/11 08:58:54;;;;;;;;;;;;;;;21.64;50.28;96080.44;10443296;28;1910;-57
2023/10/11 09:04:05;;;;;;;;;;;;;;;21.65;50.21;96074.09;10445388;28;1581;-57
2023/10/11 09:09:05;;;;;;;;;;;;;;;21.66;50.33;96067.75;10441359;28;1830;-56
2023/10/11 09:14:09;;;;;;;;;;;;;;;21.68;50.26;96070.91;10439961;28;2601;-57
2023/10/11 09:19:10;;;;;;;;;;;;;;;21.69;50.32;96067.22;10441992;28;2252;-57
2023/10/11 09:24:22;;;;;;;;;;;;;;;21.67;50.37;96067.50;10443881;28;1899;-57
2023/10/11 09:29:30;;;;;;;;;;;;;;;21.69;50.18;96073.28;10441386;28;2263;-56
2023/10/11 09:34:30;;;;;;;;;;;;;;;21.68;50.14;96065.63;10444574;28;1885;-57
2023/10/11 09:39:30;;;;;;;;;;;;;;;21.70;50.31;96064.31;10441557;28;1902;-57
2023/10/11 09:44:37;;;;;;;;;;;;;;;21.71;50.36;96067.75;10450001;28;4657;-58
2023/10/11 09:49:47;;;;;;;;;;;;;;;21.72;50.46;96079.88;10447335;28;1970;-57
2023/10/11 09:54:50;;;;;;;;;;;;;;;21.72;50.46;96075.38;10440774;28;2547;-58
2023/10/11 10:00:00;;;;;;;;;;;;;;;21.73;50.14;96079.59;10443337;28;1969;-57
2023/10/11 10:05:10;;;;;;;;;;;;;;;21.74;50.08;96078.53;10443741;28;1846;-57
2023/10/11 10:10:11;;;;;;;;;;;;;;;21.76;50.12;96075.63;10441294;28;2023;-56
2023/10/11 10:15:14;;;;;;;;;;;;;;;21.75;50.06;96074.84;10439973;28;1882;-56
2023/10/11 10:20:43;;;;;;;;;;;;;;;21.77;50.34;96070.09;10437842;28;1976;-56
2023/10/11 10:25:47;;;;;;;;;;;;;;;21.77;50.39;96061.38;10440296;28;1830;-56
2023/10/11 10:31:10;;;;;;;;;;;;;;;21.78;49.93;96065.59;10438404;28;1877;-58
2023/10/11 10:36:20;;;;;;;;;;;;;;;21.81;50.26;96062.41;10440006;28;2070;-57
2023/10/11 10:41:25;;;;;;;;;;;;;;;21.80;50.04;96058.19;10438172;28;4697;-57
2023/10/11 10:46:25;;;;;;;;;;;;;;;21.81;50.13;96050.03;10437134;28;1957;-58
2023/10/11 10:51:29;;;;;;;;;;;;;;;21.81;50.21;96047.41;10436540;28;1881;-58
2023/10/11 10:56:30;;;;;;;;;;;;;;;21.84;50.19;96038.16;10437084;28;1918;-57
2023/10/11 11:01:34;;;;;;;;;;;;;;;21.84;50.33;96030.22;10440489;28;2057;-57
2023/10/11 11:06:41;;;;;;;;;;;;;;;21.85;50.16;96026.50;10432685;28;1902;-57
2023/10/11 11:11:41;;;;;;;;;;;;;;;21.85;49.96;96022.03;10440929;28;2157;-58
2023/10/11 11:16:44;;;;;;;;;;;;;;;21.86;50.27;96015.66;10435499;28;1888;-58
2023/10/11 11:21:47;;;;;;;;;;;;;;;21.88;50.25;96009.34;10424304;28;1947;-57
2023/10/11 11:26:47;;;;;;;;;;;;;;;21.88;49.99;96003.00;10437099;28;2594;-58
2023/10/11 11:31:51;;;;;;;;;;;;;;;21.90;50.30;96001.94;10437390;28;1915;-56
2023/10/11 11:36:56;;;;;;;;;;;;;;;21.90;49.93;95994.81;10438248;28;2099;-58
2023/10/11 11:41:57;;;;;;;;;;;;;;;21.92;49.92;95989.25;10436344;28;1902;-57
2023/10/11 11:47:04;;;;;;;;;;;;;;;21.92;50.31;95976.84;10435194;28;1885;-57
2023/10/11 11:52:04;;;;;;;;;;;;;;;21.93;49.99;95982.94;10434514;28;1865;-58
2023/10/11 11:57:07;;;;;;;;;;;;;;;21.94;49.88;95969.44;10433399;28;1983;-58
2023/10/11 12:02:16;;;;;;;;;;;;;;;21.95;50.17;95964.97;10435749;28;1898;-58
2023/10/11 12:07:17;;;;;;;;;;;;;;;21.97;50.03;95968.13;10434979;28;1916;-56
2023/10/11 12:12:17;;;;;;;;;;;;;;;21.98;49.93;95959.91;10435300;28;2767;-56
2023/10/11 12:17:17;;;;;;;;;;;;;;;21.98;50.03;95948.56;10434576;28;1727;-58
2023/10/11 12:22:21;;;;;;;;;;;;;;;22.00;50.22;95946.44;10431031;28;1977;-58
2023/10/11 12:27:22;;;;;;;;;;;;;;;22.01;50.13;95948.78;10434398;28;2133;-58
2023/10/11 12:32:22;;;;;;;;;;;;;;;22.03;50.14;95941.38;10432704;28;1863;-58
2023/10/11 12:37:23;;;;;;;;;;;;;;;22.05;50.25;95944.53;10433643;28;1873;-56
2023/10/11 12:42:23;;;;;;;;;;;;;;;22.06;50.29;95934.75;10432802;28;4661;-56
2023/10/11 12:47:23;;;;;;;;;;;;;;;22.08;50.13;95930.00;10432809;28;1879;-57
2023/10/11 12:52:28;;;;;;;;;;;;;;;22.10;49.89;95933.94;10435146;28;1885;-56
2023/10/11 12:57:28;;;;;;;;;;;;;;;22.13;50.17;95938.66;10431178;28;2605;-58
2023/10/11 13:02:33;;;;;;;;;;;;;;;22.18;49.93;95938.59;10435657;28;1914;-56
2023/10/11 13:07:36;;;;;;;;;;;;;;;22.21;50.25;95938.06;10436518;28;1670;-57
2023/10/11 13:12:37;;;;;;;;;;;;;;;22.23;50.18;95930.66;10440678;28;1906;-58
2023/10/11 13:17:40;;;;;;;;;;;;;;;22.25;50.19;95933.78;10444567;28;1475;-56
2023/10/11 13:22:40;;;;;;;;;;;;;;;22.28;50.30;95927.13;10446485;28;1913;-57
2023/10/11 13:27:42;;;;;;;;;;;;;;;22.31;50.10;95930.03;10442519;28;1839;-58
2023/10/11 13:32:42;;;;;;;;;;;;;;;22.35;50.02;95912.56;10435566;28;1826;-57
2023/10/11 13:37:46;;;;;;;;;;;;;;;22.38;50.00;95914.63;10443764;28;1882;-57
2023/10/11 13:42:46;;;;;;;;;;;;;;;22.40;49.84;95917.78;10437590;28;4664;-58
2023/10/11 13:47:51;;;;;;;;;;;;;;;22.39;49.72;95913.56;10439079;28;2085;-58
2023/10/11 13:52:51;;;;;;;;;;;;;;;22.38;49.57;95906.69;10446771;28;2074;-58
2023/10/11 13:57:55;;;;;;;;;;;;;;;22.36;49.74;95905.44;10444601;28;1875;-57
2023/10/11 14:03:30;;;;;;;;;;;;;;;22.36;49.63;95897.50;10445576;28;1905;-58
2023/10/11 14:08:27;;;;;;;;;;;;;;;22.35;49.74;95890.63;10445601;28;1944;-57
2023/10/11 14:13:27;;;;;;;;;;;;;;;22.34;50.02;95889.06;10441623;28;1865;-56
2023/10/11 14:18:30;;;;;;;;;;;;;;;22.33;50.03;95883.00;10439416;28;2006;-58
2023/10/11 14:23:30;;;;;;;;;;;;;;;22.34;49.92;95881.16;10455875;28;1963;-58
2023/10/11 14:28:31;;;;;;;;;;;;;;;22.33;50.24;95871.63;10441158;28;2595;-57
2023/10/11 14:33:33;;;;;;;;;;;;;;;22.31;49.95;95874.56;10442585;28;1435;-57
2023/10/11 14:38:33;;;;;;;;;;;;;;;22.31;50.32;95864.00;10440557;28;1701;-59
2023/10/11 14:43:34;;;;;;;;;;;;;;;22.30;50.45;95857.13;10440912;28;4680;-58
2023/10/11 14:48:34;;;;;;;;;;;;;;;22.31;50.40;95853.44;10445738;28;1532;-56
2023/10/11 14:53:35;;;;;;;;;;;;;;;22.31;50.48;95852.66;10442145;28;1497;-57
2023/10/11 14:58:35;;;;;;;;;;;;;;;22.30;50.35;95857.13;10444944;28;1734;-58
2023/10/11 15:03:36;;;;;;;;;;;;;;;22.30;50.47;95856.34;10441820;28;1963;-58
2023/10/11 15:08:37;;;;;;;;;;;;;;;22.29;50.65;95850.31;10437648;28;1500;-58
2023/10/11 15:13:40;;;;;;;;;;;;;;;22.30;50.74;95856.34;10444989;28;2688;-56
2023/10/11 15:18:41;;;;;;;;;;;;;;;22.30;50.58;95857.13;10440263;28;1914;-56
2023/10/11 15:23:41;;;;;;;;;;;;;;;22.29;50.63;95854.78;10440488;28;1498;-57
2023/10/11 15:28:42;;;;;;;;;;;;;;;22.27;50.77;95849.78;10441159;28;1770;-57
2023/10/11 15:33:42;;;;;;;;;;;;;;;22.27;50.55;95863.00;10441822;28;1539;-58
2023/10/11 15:38:44;;;;;;;;;;;;;;;22.27;50.55;95870.94;10443058;28;1985;-58
2023/10/11 15:43:44;;;;;;;;;;;;;;;22.27;50.87;95870.13;10438684;28;4670;-56
2023/10/11 15:48:49;;;;;;;;;;;;;;;22.26;50.85;95871.19;10440546;28;1874;-56
2023/10/11 15:53:50;;;;;;;;;;;;;;;22.25;50.58;95875.69;10435186;28;1855;-57
2023/10/11 15:58:50;;;;;;;;;;;;;;;22.24;50.64;95876.75;10436420;28;2791;-58
2023/10/11 16:03:50;;;;;;;;;;;;;;;22.24;50.64;95871.47;10439851;28;1881;-57
2023/10/11 16:08:51;;;;;;;;;;;;;;;22.24;50.60;95874.09;10436716;28;1933;-57
2023/10/11 16:13:51;;;;;;;;;;;;;;;22.23;50.69;95877.84;10434088;28;1881;-57
2023/10/11 16:18:51;;;;;;;;;;;;;;;22.23;50.82;95877.84;10431957;28;1933;-57
2023/10/11 16:23:52;;;;;;;;;;;;;;;22.21;50.53;95885.25;10437819;28;1814;-56
2023/10/11 16:28:52;;;;;;;;;;;;;;;22.21;50.76;95885.25;10435722;28;1866;-58
2023/10/11 16:33:52;;;;;;;;;;;;;;;22.21;50.90;95887.88;10438271;28;1901;-57
2023/10/11 16:38:54;;;;;;;;;;;;;;;22.19;50.57;95887.38;10429185;28;1898;-57
2023/10/11 16:43:54;;;;;;;;;;;;;;;22.20;50.55;95883.66;10442621;28;4669;-57
2023/10/11 16:48:54;;;;;;;;;;;;;;;22.20;50.65;95886.31;10445352;28;1958;-57
2023/10/11 16:53:55;;;;;;;;;;;;;;;22.18;50.71;95888.44;10446494;28;2021;-57
2023/10/11 16:58:55;;;;;;;;;;;;;;;22.18;50.70;95891.06;10442012;28;1914;-57
2023/10/11 17:03:56;;;;;;;;;;;;;;;22.18;50.85;95887.63;10446141;28;1890;-57
2023/10/11 17:08:57;;;;;;;;;;;;;;;22.17;50.68;95892.16;10448281;28;1822;-57
2023/10/11 17:13:58;;;;;;;;;;;;;;;22.18;50.79;95885.78;10440634;28;1866;-58
2023/10/11 17:18:58;;;;;;;;;;;;;;;22.18;50.87;95892.91;10443306;28;1922;-58
2023/10/11 17:23:58;;;;;;;;;;;;;;;22.16;50.54;95890.56;10437415;28;1893;-57
2023/10/11 17:29:00;;;;;;;;;;;;;;;22.16;50.45;95893.22;10440981;28;2501;-56
2023/10/11 17:34:00;;;;;;;;;;;;;;;22.16;50.49;95890.56;10441448;28;1889;-58
2023/10/11 17:39:01;;;;;;;;;;;;;;;22.16;50.52;95893.22;10439400;28;1906;-57
2023/10/11 17:44:01;;;;;;;;;;;;;;;22.15;50.79;95902.22;10442065;28;4609;-56
2023/10/11 17:49:04;;;;;;;;;;;;;;;22.14;50.71;95903.25;10441860;28;2073;-57
2023/10/11 17:54:04;;;;;;;;;;;;;;;22.14;50.68;95900.63;10440876;28;2119;-58
2023/10/11 17:59:04;;;;;;;;;;;;;;;22.15;50.72;95901.41;10441724;28;1909;-58
2023/10/11 18:04:05;;;;;;;;;;;;;;;22.13;50.47;95901.72;10439977;28;2800;-58
2023/10/11 18:09:05;;;;;;;;;;;;;;;22.13;50.49;95904.34;10440773;28;1814;-57
2023/10/11 18:14:06;;;;;;;;;;;;;;;22.12;50.32;95910.69;10443130;28;2687;-56
2023/10/11 18:19:10;;;;;;;;;;;;;;;22.12;50.67;95908.03;10445632;28;1906;-58
2023/10/11 18:24:10;;;;;;;;;;;;;;;22.12;50.38;95907.25;10442424;28;1893;-58
2023/10/11 18:29:10;;;;;;;;;;;;;;;22.12;50.50;95909.88;10444035;28;1818;-58
2023/10/11 18:34:11;;;;;;;;;;;;;;;22.11;50.39;95911.75;10437794;28;1826;-57
2023/10/11 18:39:12;;;;;;;;;;;;;;;22.11;50.60;95911.75;10439308;28;1967;-56
2023/10/11 18:44:12;;;;;;;;;;;;;;;22.12;50.11;95909.88;10439037;28;1883;-58
2023/10/11 18:49:15;;;;;;;;;;;;;;;22.11;50.27;95906.47;10439692;28;1905;-56
2023/10/11 18:54:15;;;;;;;;;;;;;;;22.10;50.56;95896.97;10443342;28;1854;-57
2023/10/11 18:59:17;;;;;;;;;;;;;;;22.10;50.46;95896.19;10441238;28;2500;-57
2023/10/11 19:04:18;;;;;;;;;;;;;;;22.10;50.50;95896.19;10437961;28;1875;-57
2023/10/11 19:09:20;;;;;;;;;;;;;;;22.09;50.54;95891.97;10438376;28;1917;-57
2023/10/11 19:14:20;;;;;;;;;;;;;;;22.09;50.19;95892.75;10439618;28;1863;-57
2023/10/11 19:19:22;;;;;;;;;;;;;;;22.10;50.11;95888.25;10435814;28;2008;-56
2023/10/11 19:24:22;;;;;;;;;;;;;;;22.08;50.40;95880.63;10435540;28;1890;-58
2023/10/11 19:29:22;;;;;;;;;;;;;;;22.08;50.04;95874.53;10437768;28;1901;-57
2023/10/11 19:34:22;;;;;;;;;;;;;;;22.08;50.31;95870.06;10438921;28;2239;-57
2023/10/11 19:39:23;;;;;;;;;;;;;;;22.09;50.33;95870.84;10436099;28;1938;-56
2023/10/11 19:44:24;;;;;;;;;;;;;;;22.08;49.96;95870.06;10438559;28;4610;-58
2023/10/11 19:49:24;;;;;;;;;;;;;;;22.08;50.04;95866.63;10436358;28;1898;-58
2023/10/11 19:54:25;;;;;;;;;;;;;;;22.08;49.97;95866.63;10426611;28;1873;-58
2023/10/11 19:59:25;;;;;;;;;;;;;;;22.08;50.25;95858.72;10432211;28;1910;-58
2023/10/11 20:04:25;;;;;;;;;;;;;;;22.08;49.79;95859.50;10431454;28;2026;-56
2023/10/11 20:09:26;;;;;;;;;;;;;;;22.11;49.74;95848.41;10436642;28;1945;-58
2023/10/11 20:14:28;;;;;;;;;;;;;;;22.16;49.86;95850.97;10438876;28;1911;-54
2023/10/11 20:19:29;;;;;;;;;;;;;;;22.17;49.69;95859.69;10447203;28;1943;-57
2023/10/11 20:24:29;;;;;;;;;;;;;;;22.15;49.81;95854.69;10442000;28;1944;-56
2023/10/11 20:29:31;;;;;;;;;;;;;;;22.12;49.49;95849.97;10441726;28;2487;-57
2023/10/11 20:34:33;;;;;;;;;;;;;;;22.09;49.54;95858.41;10442423;28;1934;-55
2023/10/11 20:39:33;;;;;;;;;;;;;;;22.06;48.96;95863.47;10441023;28;1902;-55
2023/10/11 20:44:35;;;;;;;;;;;;;;;22.00;48.45;95857.47;10445084;28;4754;-56
2023/10/11 20:49:36;;;;;;;;;;;;;;;21.97;48.34;95867.81;10446345;28;1878;-56
2023/10/11 20:54:39;;;;;;;;;;;;;;;21.93;48.11;95864.94;10443944;28;1901;-52
2023/10/11 20:59:43;;;;;;;;;;;;;;;21.91;47.79;95866.28;10448440;28;1993;-54
2023/10/11 21:04:43;;;;;;;;;;;;;;;21.89;47.58;95863.91;10441646;28;1999;-56
2023/10/11 21:09:44;;;;;;;;;;;;;;;21.92;48.03;95860.72;10442357;28;1850;-56
2023/10/11 21:14:44;;;;;;;;;;;;;;;21.94;47.88;95858.59;10444757;28;2557;-54
2023/10/11 21:19:44;;;;;;;;;;;;;;;21.96;48.41;95863.59;10442820;28;1973;-55
2023/10/11 21:24:44;;;;;;;;;;;;;;;21.95;48.61;95857.50;10441867;28;1810;-54
2023/10/11 21:29:47;;;;;;;;;;;;;;;21.97;48.50;95863.31;10446261;28;1881;-56
2023/10/11 21:34:47;;;;;;;;;;;;;;;21.98;48.54;95856.97;10441332;28;1822;-54
2023/10/11 21:39:47;;;;;;;;;;;;;;;21.99;48.99;95852.50;10442259;28;1914;-57
2023/10/11 21:44:48;;;;;;;;;;;;;;;21.98;48.88;95849.06;10438313;28;4666;-56
2023/10/11 21:49:48;;;;;;;;;;;;;;;21.99;49.12;95847.22;10435478;28;1882;-57
2023/10/11 21:54:48;;;;;;;;;;;;;;;21.99;49.01;95850.63;10440481;28;1887;-56
2023/10/11 21:59:55;;;;;;;;;;;;;;;22.00;49.15;95848.75;10437859;28;2667;-56
2023/10/11 22:04:56;;;;;;;;;;;;;;;22.01;49.22;95839.78;10442803;28;1879;-54
2023/10/11 22:09:56;;;;;;;;;;;;;;;22.01;49.10;95847.72;10440794;28;1917;-56
2023/10/11 22:14:56;;;;;;;;;;;;;;;22.01;49.11;95831.88;10441770;28;1913;-57
2023/10/11 22:19:56;;;;;;;;;;;;;;;22.01;49.05;95837.16;10446266;28;1887;-55
2023/10/11 22:24:57;;;;;;;;;;;;;;;22.01;49.09;95835.28;10440118;28;1845;-57
2023/10/11 22:30:01;;;;;;;;;;;;;;;22.01;49.28;95835.28;10439325;28;1909;-56
2023/10/11 22:35:04;;;;;;;;;;;;;;;22.01;49.19;95840.56;10439822;28;1846;-56
2023/10/11 22:40:06;;;;;;;;;;;;;;;22.01;49.38;95837.16;10441891;28;1909;-55
2023/10/11 22:45:07;;;;;;;;;;;;;;;22.01;49.35;95835.28;10443006;28;2743;-56
2023/10/11 22:50:07;;;;;;;;;;;;;;;22.01;49.52;95842.44;10439785;28;1861;-57
2023/10/11 22:55:08;;;;;;;;;;;;;;;22.01;49.46;95837.91;10446244;28;1801;-57
2023/10/11 23:00:16;;;;;;;;;;;;;;;22.01;49.09;95837.91;10438959;28;1909;-52
2023/10/11 23:05:17;;;;;;;;;;;;;;;21.99;49.36;95842.69;10444388;28;1744;-55
2023/10/11 23:10:20;;;;;;;;;;;;;;;22.00;49.53;95841.63;10437772;28;1818;-57
2023/10/11 23:15:28;;;;;;;;;;;;;;;22.00;49.50;95835.56;10435605;28;1830;-56
2023/10/11 23:20:38;;;;;;;;;;;;;;;21.99;49.38;95842.69;10439163;28;1938;-57
2023/10/11 23:25:49;;;;;;;;;;;;;;;21.99;49.36;95845.34;10440270;28;1897;-54
2023/10/11 23:30:54;;;;;;;;;;;;;;;21.99;49.47;95842.69;10435140;28;2499;-55
2023/10/11 23:36:01;;;;;;;;;;;;;;;22.00;49.32;95846.13;10434409;28;1965;-56
2023/10/11 23:46:25;;;;;;;;;;;;;;;21.98;49.55;95854.34;10442662;28;2032;-56
2023/10/11 23:51:28;;;;;;;;;;;;;;;21.99;49.42;95860.41;10441148;28;1681;-57
2023/10/11 23:56:30;;;;;;;;;;;;;;;21.97;49.08;95857.25;10438896;28;1968;-56
